Savage, MT

10:59 AM MST on February 07, 2016 (GMT -0700)
APRSWXNET | | Change Station
CLOSE
Current Station
Personal Weather Station
Location: Savage, MT
Elevation: 2011 ft
Nearby Weather Stations
Active Advisory: High Wind Warning

Elev 2011 ft 47.50 °N, 104.33 °W | Updated 32 minutes ago

Clear
Clear
35 °F
Feels Like 23 °F
N
22
Wind Variable Wind from NW
Gusts 34.0 mph

Today
High -- | Low -- °F
--% Chance of Precip.
Yesterday
High -- | Low -- °F
Precip. -- in
Pressure 30.18 in
Visibility 10.0 miles
Clouds Clear
Windchill 23 °F
Dew Point 16 °F
Humidity 46%
Rainfall in
Snow Depth Not available.
7:15 AM 5:07 PM
Waning Crescent, 1% visible
METAR KSDY 071755Z 32028G43KT 10SM CLR 02/M11 A3018 RMK AO1 10020 21010 52034
Pressure 30.18 in
Visibility 10.0 miles
Clouds Clear
Windchill 23 °F
Dew Point 16 °F
Humidity 46%
Rainfall in
Snow Depth Not available.
7:15 AM 5:07 PM
Waning Crescent, 1% visible
METAR KSDY 071755Z 32028G43KT 10SM CLR 02/M11 A3018 RMK AO1 10020 21010 52034

10-Day Weather Forecast

Almanac

Astronomy

Feb. 07, 2016 Rise Set
Actual Time
Civil Twilight
Nautical Twilight
Astronomical Twilight
Moon
Length of Visible Light
Length of Day
Tomorrow will be .
, % of the Moon is Illuminated

Today's Extremes

State Highs State Lows

Community

WunderPhotos

Upload Photos

1,891,248 photos uploaded!

WunderBlog® & News

Nearby

Air Quality

  Air Quality AQ Index Pollutant
Not available.

Snow Depth

Station Depth Elevation

Earthquake Activity

City Distance Mag. Time & Date
Minimum magnitude displayed is 2.5.

Coastal Water Temperatures

Place Temperature

Stations

Nearby Weather Stations

Station Location Temp. Windchill Dew Point Humidity Wind Precip. Elev Updated Type
                   

Watches & Warnings

High Wind Warning
Issued: 9:39 AM MST Feb. 7, 2016 – National Weather Service

... High Wind Warning remains in effect until 5 PM MST this
afternoon...

A High Wind Warning remains in effect until 5 PM MST this
afternoon.

* Winds... northwest 30 to 40 mph with gusts up to 60 mph,
especially Dawson, Wibaux and prairie counties.

* Timing... this morning through late afternoon.

* Impacts... the strong winds may make travel difficult
especially for high profile vehicles on north-south oriented
roads.

Precautionary/preparedness actions...

A High Wind Warning means a hazardous high wind event is expected
or occurring. Sustained wind speeds of at least 40 mph or gusts
of 58 mph or more can lead to property damage.



Http://weather.Gov/Glasgow